Time;durP1;ratioP1;P1;durP2;ratioP2;P2;SDS_P1;SDS_P2;PMS_P1;PMS_P2;Temp;Humidity;BMP_temperature;BMP_pressure;BME280_temperature;BME280_humidity;BME280_pressure;Samples;Min_cycle;Max_cycle;Signal;HPM_P1;HPM_P2
2023/06/21 00:01:54;;;;;;;3.42;2.63;;;;;;;;;;5054667;28;20056;-62
2023/06/21 00:04:20;;;;;;;3.70;2.50;;;;;;;;;;5054980;28;20053;-61
2023/06/21 00:06:49;;;;;;;3.58;2.53;;;;;;;;;;5055124;28;20293;-62
2023/06/21 00:09:16;;;;;;;3.20;2.55;;;;;;;;;;5053706;28;20060;-62
2023/06/21 00:11:42;;;;;;;4.00;2.40;;;;;;;;;;5055381;28;20060;-62
2023/06/21 00:14:09;;;;;;;2.78;2.25;;;;;;;;;;5055011;28;20045;-62
2023/06/21 00:16:35;;;;;;;5.05;2.28;;;;;;;;;;5054662;28;20045;-62
2023/06/21 00:19:02;;;;;;;4.35;2.55;;;;;;;;;;5055109;28;20053;-62
2023/06/21 00:21:29;;;;;;;4.18;2.60;;;;;;;;;;5054982;28;20076;-62
2023/06/21 00:23:55;;;;;;;4.63;3.00;;;;;;;;;;5054939;28;20045;-62
2023/06/21 00:26:21;;;;;;;4.47;2.70;;;;;;;;;;5054495;28;20615;-62
2023/06/21 00:28:48;;;;;;;6.40;2.83;;;;;;;;;;5054535;28;20481;-62
2023/06/21 00:31:14;;;;;;;5.43;2.50;;;;;;;;;;5054502;28;20059;-62
2023/06/21 00:33:41;;;;;;;5.38;2.95;;;;;;;;;;5054423;28;20057;-62
2023/06/21 00:36:07;;;;;;;4.22;3.75;;;;;;;;;;5054667;28;20079;-61
2023/06/21 00:38:34;;;;;;;5.07;3.10;;;;;;;;;;5054349;28;20041;-62
2023/06/21 00:41:01;;;;;;;;;;;;;;;;;;5054664;28;20064;-62
2023/06/21 00:43:28;;;;;;;4.20;3.08;;;;;;;;;;5054519;28;19921;-62
2023/06/21 00:45:54;;;;;;;2.80;2.60;;;;;;;;;;5054326;28;20044;-62
2023/06/21 00:48:21;;;;;;;5.45;3.20;;;;;;;;;;5054131;28;20053;-62
2023/06/21 00:50:47;;;;;;;5.47;3.10;;;;;;;;;;5054374;28;20060;-61
2023/06/21 00:53:14;;;;;;;5.60;3.03;;;;;;;;;;5054128;28;20106;-62
2023/06/21 00:55:40;;;;;;;3.42;2.90;;;;;;;;;;5054249;28;20051;-62
2023/06/21 00:58:09;;;;;;;4.03;3.05;;;;;;;;;;5054329;28;20052;-62
2023/06/21 01:00:37;;;;;;;4.28;3.17;;;;;;;;;;5053809;28;20483;-62
2023/06/21 01:03:03;;;;;;;7.28;2.92;;;;;;;;;;5053798;28;20053;-62
2023/06/21 01:05:34;;;;;;;7.07;3.30;;;;;;;;;;5054020;28;20088;-61
2023/06/21 01:08:22;;;;;;;5.35;3.05;;;;;;;;;;5053949;28;20095;-62
2023/06/21 01:10:56;;;;;;;4.18;3.30;;;;;;;;;;5053882;28;20477;-62
2023/06/21 01:13:29;;;;;;;5.28;3.28;;;;;;;;;;5054069;28;20447;-61
2023/06/21 01:16:25;;;;;;;4.05;3.05;;;;;;;;;;5053723;28;20118;-62
2023/06/21 01:18:52;;;;;;;4.90;3.33;;;;;;;;;;5053203;28;20056;-61
2023/06/21 01:21:22;;;;;;;3.95;3.35;;;;;;;;;;5053821;28;20056;-62
2023/06/21 01:24:06;;;;;;;8.90;3.00;;;;;;;;;;5053717;28;20053;-62
2023/06/21 01:26:51;;;;;;;7.90;2.70;;;;;;;;;;5053559;28;20059;-62
2023/06/21 01:29:23;;;;;;;5.63;3.00;;;;;;;;;;5053559;28;20601;-62
2023/06/21 01:31:52;;;;;;;4.45;2.80;;;;;;;;;;5053526;28;20049;-62
2023/06/21 01:34:19;;;;;;;4.28;2.85;;;;;;;;;;5052116;28;20554;-62
2023/06/21 01:36:45;;;;;;;4.60;2.83;;;;;;;;;;5053235;28;20041;-62
2023/06/21 01:39:12;;;;;;;6.80;2.85;;;;;;;;;;5053744;28;20051;-62
2023/06/21 01:41:38;;;;;;;3.85;3.30;;;;;;;;;;5053250;28;20106;-62
2023/06/21 01:44:07;;;;;;;6.20;3.50;;;;;;;;;;5053570;28;20095;-62
2023/06/21 01:46:33;;;;;;;5.28;3.08;;;;;;;;;;5053111;28;20045;-62
2023/06/21 01:49:01;;;;;;;3.85;3.20;;;;;;;;;;5052905;28;20055;-62
2023/06/21 01:51:28;;;;;;;4.95;3.13;;;;;;;;;;5052968;28;20334;-61
2023/06/21 01:53:55;;;;;;;5.77;3.00;;;;;;;;;;5052327;28;20099;-61
2023/06/21 01:56:23;;;;;;;5.68;2.90;;;;;;;;;;5052874;28;20611;-62
2023/06/21 01:58:50;;;;;;;3.70;2.90;;;;;;;;;;5053033;28;20041;-63
2023/06/21 02:01:18;;;;;;;3.30;3.00;;;;;;;;;;5052790;28;20061;-62
2023/06/21 02:03:51;;;;;;;5.38;3.15;;;;;;;;;;5052789;28;20052;-62
2023/06/21 02:06:20;;;;;;;4.50;2.90;;;;;;;;;;5053210;28;20052;-62
2023/06/21 02:08:50;;;;;;;4.63;2.83;;;;;;;;;;5052805;28;20060;-61
2023/06/21 02:11:16;;;;;;;3.33;3.03;;;;;;;;;;5052572;28;20049;-62
2023/06/21 02:13:44;;;;;;;6.47;2.97;;;;;;;;;;5052678;28;20103;-62
2023/06/21 02:16:11;;;;;;;3.78;3.10;;;;;;;;;;5052288;28;20041;-61
2023/06/21 02:18:37;;;;;;;4.28;3.08;;;;;;;;;;5052764;28;20045;-62
2023/06/21 02:21:04;;;;;;;3.60;2.63;;;;;;;;;;5052674;28;20481;-62
2023/06/21 02:23:31;;;;;;;5.90;2.85;;;;;;;;;;5052251;28;20053;-62
2023/06/21 02:25:57;;;;;;;8.27;3.17;;;;;;;;;;5052480;28;20048;-61
2023/06/21 02:28:23;;;;;;;4.15;2.97;;;;;;;;;;5052521;28;20489;-61
2023/06/21 02:30:50;;;;;;;4.75;3.08;;;;;;;;;;5052164;28;20048;-62
2023/06/21 02:33:16;;;;;;;6.07;3.13;;;;;;;;;;5052406;28;20758;-62
2023/06/21 02:35:43;;;;;;;5.70;3.00;;;;;;;;;;5051332;28;20128;-62
2023/06/21 02:38:09;;;;;;;6.32;3.47;;;;;;;;;;5052231;28;20068;-62
2023/06/21 02:40:36;;;;;;;4.57;3.22;;;;;;;;;;5052128;28;20049;-62
2023/06/21 02:43:02;;;;;;;7.93;3.45;;;;;;;;;;5052532;28;20492;-61
2023/06/21 02:45:29;;;;;;;6.75;3.08;;;;;;;;;;5052383;28;20064;-61
2023/06/21 02:47:55;;;;;;;4.03;3.03;;;;;;;;;;5052001;28;20052;-62
2023/06/21 02:50:22;;;;;;;4.20;2.70;;;;;;;;;;5052347;28;20084;-62
2023/06/21 02:52:48;;;;;;;9.30;3.65;;;;;;;;;;5052183;28;20053;-62
2023/06/21 02:55:16;;;;;;;5.88;3.50;;;;;;;;;;5051754;28;20052;-61
2023/06/21 02:57:42;;;;;;;6.07;3.33;;;;;;;;;;5051838;28;20053;-62
2023/06/21 03:00:19;;;;;;;7.88;3.38;;;;;;;;;;5051955;28;20053;-62
2023/06/21 03:02:45;;;;;;;4.95;3.53;;;;;;;;;;5052095;28;20048;-61
2023/06/21 03:05:12;;;;;;;6.63;3.60;;;;;;;;;;5051045;28;20123;-62
2023/06/21 03:07:43;;;;;;;3.47;2.90;;;;;;;;;;5051553;28;20048;-62
2023/06/21 03:10:10;;;;;;;5.25;3.00;;;;;;;;;;5051869;28;20048;-62
2023/06/21 03:12:38;;;;;;;4.43;3.00;;;;;;;;;;5051638;28;20052;-62
2023/06/21 03:15:04;;;;;;;4.00;2.75;;;;;;;;;;5051671;28;20547;-62
2023/06/21 03:17:31;;;;;;;3.97;2.95;;;;;;;;;;5051718;28;20041;-61
2023/06/21 03:19:57;;;;;;;5.53;3.05;;;;;;;;;;5051489;28;20528;-62
2023/06/21 03:22:24;;;;;;;4.22;2.65;;;;;;;;;;5045625;28;20107;-62
2023/06/21 03:24:50;;;;;;;4.07;3.22;;;;;;;;;;5049380;28;20045;-62
2023/06/21 03:27:17;;;;;;;4.43;2.88;;;;;;;;;;5051691;28;20045;-62
2023/06/21 03:29:43;;;;;;;4.75;2.85;;;;;;;;;;5051642;28;20580;-62
2023/06/21 03:32:10;;;;;;;4.57;2.88;;;;;;;;;;5051276;28;20056;-62
2023/06/21 03:34:37;;;;;;;4.03;2.58;;;;;;;;;;5051308;28;20098;-61
2023/06/21 03:37:04;;;;;;;6.13;3.10;;;;;;;;;;5051717;28;20080;-61
2023/06/21 03:39:31;;;;;;;6.37;3.20;;;;;;;;;;5051233;28;20516;-62
2023/06/21 03:41:57;;;;;;;5.05;3.03;;;;;;;;;;5051345;28;20048;-62
2023/06/21 03:44:24;;;;;;;5.25;3.35;;;;;;;;;;5051564;28;20056;-61
2023/06/21 03:46:50;;;;;;;5.72;3.40;;;;;;;;;;5051485;28;20401;-62
2023/06/21 03:49:20;;;;;;;5.43;3.05;;;;;;;;;;5051071;28;20106;-62
2023/06/21 03:51:47;;;;;;;5.28;2.70;;;;;;;;;;5051077;28;20106;-62
2023/06/21 03:54:13;;;;;;;5.43;2.78;;;;;;;;;;5051195;28;20048;-61
2023/06/21 03:56:40;;;;;;;4.85;3.08;;;;;;;;;;5051466;28;20045;-62
2023/06/21 03:59:07;;;;;;;6.63;3.20;;;;;;;;;;5051333;28;20045;-62
2023/06/21 04:01:33;;;;;;;6.50;2.88;;;;;;;;;;5051069;28;20103;-62
2023/06/21 04:04:00;;;;;;;6.65;3.28;;;;;;;;;;5051300;28;20091;-62
2023/06/21 04:06:26;;;;;;;4.95;3.05;;;;;;;;;;5051046;28;20088;-61
2023/06/21 04:08:53;;;;;;;5.57;3.30;;;;;;;;;;5051309;28;20378;-62
2023/06/21 04:11:19;;;;;;;5.88;2.72;;;;;;;;;;5050910;28;20048;-62
2023/06/21 04:13:46;;;;;;;3.67;2.87;;;;;;;;;;5051276;28;20056;-62
2023/06/21 04:16:16;;;;;;;6.07;3.22;;;;;;;;;;5053287;28;20136;-62
2023/06/21 04:18:42;;;;;;;5.78;3.03;;;;;;;;;;5054686;28;20488;-61
2023/06/21 04:21:09;;;;;;;4.47;2.83;;;;;;;;;;5054793;28;20052;-62
2023/06/21 04:23:35;;;;;;;4.60;3.28;;;;;;;;;;5054787;28;20483;-61
2023/06/21 04:26:04;;;;;;;4.35;3.42;;;;;;;;;;5054647;28;20060;-62
2023/06/21 04:28:32;;;;;;;6.35;3.40;;;;;;;;;;5054789;28;20049;-61
2023/06/21 04:31:00;;;;;;;7.00;3.37;;;;;;;;;;5054505;28;20415;-62
2023/06/21 04:33:28;;;;;;;6.85;2.90;;;;;;;;;;5054598;28;20049;-61
2023/06/21 04:35:54;;;;;;;7.53;3.10;;;;;;;;;;5054744;28;20056;-62
2023/06/21 04:38:21;;;;;;;6.57;3.28;;;;;;;;;;5054598;28;20052;-62
2023/06/21 04:40:47;;;;;;;5.57;3.55;;;;;;;;;;5054297;28;20493;-61
2023/06/21 04:43:14;;;;;;;5.90;3.90;;;;;;;;;;5054682;28;20511;-62
2023/06/21 04:45:40;;;;;;;6.13;3.47;;;;;;;;;;5054669;28;20443;-62
2023/06/21 04:48:07;;;;;;;6.35;3.60;;;;;;;;;;5054283;28;20119;-62
2023/06/21 04:50:33;;;;;;;5.55;3.55;;;;;;;;;;5054106;28;20095;-62
2023/06/21 04:53:00;;;;;;;5.90;3.72;;;;;;;;;;5054001;28;20056;-62
2023/06/21 04:55:27;;;;;;;7.10;4.15;;;;;;;;;;5053134;28;20127;-62
2023/06/21 04:57:54;;;;;;;7.95;4.80;;;;;;;;;;5054406;28;20056;-61
2023/06/21 05:00:20;;;;;;;5.40;4.70;;;;;;;;;;5054271;28;20056;-62
2023/06/21 05:02:47;;;;;;;7.57;5.05;;;;;;;;;;5053025;28;20390;-62
2023/06/21 05:05:14;;;;;;;6.78;5.57;;;;;;;;;;5053812;28;20080;-62
2023/06/21 05:07:41;;;;;;;5.67;3.80;;;;;;;;;;5053769;28;20044;-62
2023/06/21 05:10:08;;;;;;;4.80;4.20;;;;;;;;;;5054216;28;20048;-61
2023/06/21 05:12:35;;;;;;;9.25;4.65;;;;;;;;;;5052133;28;20053;-62
2023/06/21 05:15:01;;;;;;;5.93;4.43;;;;;;;;;;5053765;28;20041;-62
2023/06/21 05:17:28;;;;;;;6.25;4.00;;;;;;;;;;5053852;28;20049;-61
2023/06/21 05:19:54;;;;;;;7.43;4.75;;;;;;;;;;5053549;28;20119;-62
2023/06/21 05:22:21;;;;;;;5.55;4.38;;;;;;;;;;5053512;28;20056;-62
2023/06/21 05:24:47;;;;;;;5.78;5.10;;;;;;;;;;5053701;28;20055;-62
2023/06/21 05:27:14;;;;;;;7.53;4.90;;;;;;;;;;5052487;28;20136;-62
2023/06/21 05:29:40;;;;;;;6.78;4.68;;;;;;;;;;5053395;28;20060;-61
2023/06/21 05:32:07;;;;;;;8.23;5.10;;;;;;;;;;5053495;28;20124;-62
2023/06/21 05:34:33;;;;;;;7.13;5.13;;;;;;;;;;5053311;28;20048;-62
2023/06/21 05:37:00;;;;;;;7.72;6.90;;;;;;;;;;5052293;28;20558;-62
2023/06/21 05:39:26;;;;;;;7.97;7.13;;;;;;;;;;5053089;28;20094;-61
2023/06/21 05:41:52;;;;;;;7.82;7.10;;;;;;;;;;5053494;28;20065;-61
2023/06/21 05:44:19;;;;;;;7.95;6.95;;;;;;;;;;5053356;28;20643;-61
2023/06/21 05:46:45;;;;;;;9.35;7.88;;;;;;;;;;5053191;28;20049;-61
2023/06/21 05:49:12;;;;;;;8.35;7.32;;;;;;;;;;5053014;28;20053;-62
2023/06/21 05:51:38;;;;;;;8.82;7.45;;;;;;;;;;5053135;28;20132;-62
2023/06/21 05:54:05;;;;;;;8.75;7.85;;;;;;;;;;5053219;28;20382;-62
2023/06/21 05:56:36;;;;;;;8.25;6.97;;;;;;;;;;5052814;28;20087;-62
2023/06/21 05:59:04;;;;;;;7.80;6.97;;;;;;;;;;5053012;28;20052;-62
2023/06/21 06:01:30;;;;;;;7.65;6.95;;;;;;;;;;5052699;28;20065;-62
2023/06/21 06:03:57;;;;;;;7.68;6.90;;;;;;;;;;5053013;28;20056;-62
2023/06/21 06:06:33;;;;;;;7.60;6.75;;;;;;;;;;5052936;28;20451;-61
2023/06/21 06:09:00;;;;;;;7.07;6.38;;;;;;;;;;5053010;28;20045;-62
2023/06/21 06:11:26;;;;;;;7.32;6.65;;;;;;;;;;5052465;28;20053;-62
2023/06/21 06:13:52;;;;;;;7.30;6.57;;;;;;;;;;5052902;28;20059;-62
2023/06/21 06:16:19;;;;;;;7.50;6.80;;;;;;;;;;5041931;28;20519;-62
2023/06/21 06:18:45;;;;;;;7.13;5.97;;;;;;;;;;5048717;28;20049;-62
2023/06/21 06:21:12;;;;;;;6.15;5.55;;;;;;;;;;5052670;28;20041;-62
2023/06/21 06:23:38;;;;;;;6.45;5.80;;;;;;;;;;5052686;28;20053;-62
2023/06/21 06:26:05;;;;;;;6.40;5.77;;;;;;;;;;5052486;28;20075;-62
2023/06/21 06:28:33;;;;;;;6.30;5.70;;;;;;;;;;5049509;28;20060;-61
2023/06/21 06:30:59;;;;;;;6.00;5.50;;;;;;;;;;5041152;28;20477;-61
2023/06/21 06:33:26;;;;;;;7.82;5.28;;;;;;;;;;5043930;28;20115;-61
2023/06/21 06:35:52;;;;;;;5.82;5.20;;;;;;;;;;5032382;28;20511;-61
2023/06/21 06:38:19;;;;;;;6.10;5.50;;;;;;;;;;5032659;28;20057;-62
2023/06/21 06:40:46;;;;;;;4.63;4.17;;;;;;;;;;5032081;28;20049;-61
2023/06/21 06:43:13;;;;;;;5.78;4.97;;;;;;;;;;5044200;28;20045;-62
2023/06/21 06:45:39;;;;;;;4.88;4.10;;;;;;;;;;5038892;28;20056;-62
2023/06/21 06:48:06;;;;;;;4.85;4.30;;;;;;;;;;5050495;28;20435;-61
2023/06/21 06:50:36;;;;;;;5.25;4.18;;;;;;;;;;5036096;28;20060;-62
2023/06/21 06:53:04;;;;;;;7.32;3.70;;;;;;;;;;5049864;28;20519;-62
2023/06/21 06:55:31;;;;;;;6.18;3.75;;;;;;;;;;5049323;28;20477;-62
2023/06/21 06:57:58;;;;;;;3.10;2.80;;;;;;;;;;5050330;28;20067;-62
2023/06/21 07:00:31;;;;;;;3.63;3.20;;;;;;;;;;5050959;28;20420;-62
2023/06/21 07:02:58;;;;;;;3.60;3.30;;;;;;;;;;5050680;28;20374;-62
2023/06/21 07:05:25;;;;;;;3.95;3.10;;;;;;;;;;5050736;28;20566;-62
2023/06/21 07:07:52;;;;;;;4.80;3.42;;;;;;;;;;5051133;28;20083;-63
2023/06/21 07:10:19;;;;;;;3.70;3.17;;;;;;;;;;5052073;28;20056;-62
2023/06/21 07:12:46;;;;;;;4.00;3.05;;;;;;;;;;5051677;28;20048;-61
2023/06/21 07:15:12;;;;;;;3.38;3.05;;;;;;;;;;5051709;28;20048;-62
2023/06/21 07:17:39;;;;;;;2.42;2.20;;;;;;;;;;5051579;28;20491;-62
2023/06/21 07:20:08;;;;;;;4.23;2.40;;;;;;;;;;5051970;28;20087;-62
2023/06/21 07:22:35;;;;;;;3.42;2.70;;;;;;;;;;5051424;28;20092;-61
2023/06/21 07:25:02;;;;;;;4.32;2.65;;;;;;;;;;5051301;28;20049;-62
2023/06/21 07:27:29;;;;;;;5.28;2.88;;;;;;;;;;5051434;28;20053;-61
2023/06/21 07:29:56;;;;;;;5.50;2.92;;;;;;;;;;5051451;28;20055;-62
2023/06/21 07:32:22;;;;;;;5.33;3.47;;;;;;;;;;5051344;28;20053;-61
2023/06/21 07:34:53;;;;;;;4.13;3.20;;;;;;;;;;5051450;28;20052;-62
2023/06/21 07:37:20;;;;;;;3.45;3.15;;;;;;;;;;5051617;28;20084;-62
2023/06/21 07:39:46;;;;;;;2.92;2.50;;;;;;;;;;5051246;28;20080;-61
2023/06/21 07:42:20;;;;;;;3.20;2.90;;;;;;;;;;5051425;28;20088;-61
2023/06/21 07:44:50;;;;;;;5.68;3.00;;;;;;;;;;5051207;28;20052;-62
2023/06/21 07:47:17;;;;;;;3.60;2.85;;;;;;;;;;5051185;28;20057;-62
2023/06/21 07:49:43;;;;;;;3.50;2.92;;;;;;;;;;5051004;28;20428;-61
2023/06/21 07:52:11;;;;;;;5.07;2.70;;;;;;;;;;5055087;28;20098;-61
2023/06/21 07:54:37;;;;;;;4.18;2.60;;;;;;;;;;5055451;28;20049;-61
2023/06/21 07:57:04;;;;;;;4.63;2.47;;;;;;;;;;5055455;28;20049;-62
2023/06/21 07:59:33;;;;;;;4.00;3.05;;;;;;;;;;5055481;28;20049;-62
2023/06/21 08:01:59;;;;;;;2.92;2.60;;;;;;;;;;5055037;28;20049;-61
2023/06/21 08:04:26;;;;;;;3.27;2.80;;;;;;;;;;5055058;28;20110;-62
2023/06/21 08:06:53;;;;;;;3.28;2.47;;;;;;;;;;5055075;28;20282;-62
2023/06/21 08:09:19;;;;;;;3.67;2.33;;;;;;;;;;5055259;28;20397;-62
2023/06/21 08:11:46;;;;;;;3.10;2.28;;;;;;;;;;5055106;28;20405;-62
2023/06/21 08:14:12;;;;;;;3.17;2.30;;;;;;;;;;5054965;28;20052;-62
2023/06/21 08:16:39;;;;;;;3.13;2.60;;;;;;;;;;5055004;28;20098;-61
2023/06/21 08:19:05;;;;;;;4.23;2.50;;;;;;;;;;5055246;28;20045;-61
2023/06/21 08:21:32;;;;;;;4.25;2.40;;;;;;;;;;5054990;28;20134;-62
2023/06/21 08:23:58;;;;;;;3.07;2.33;;;;;;;;;;5054853;28;20052;-62
2023/06/21 08:26:25;;;;;;;3.90;2.10;;;;;;;;;;5054783;28;20056;-62
2023/06/21 08:28:51;;;;;;;4.00;2.40;;;;;;;;;;5054776;28;20057;-62
2023/06/21 08:31:17;;;;;;;3.10;2.03;;;;;;;;;;5054467;28;20052;-62
2023/06/21 08:33:44;;;;;;;2.60;1.98;;;;;;;;;;5054860;28;20400;-62
2023/06/21 08:36:11;;;;;;;2.10;1.90;;;;;;;;;;5054731;28;20051;-63
2023/06/21 08:38:38;;;;;;;1.80;1.70;;;;;;;;;;5054344;28;20045;-62
2023/06/21 08:41:04;;;;;;;2.20;1.85;;;;;;;;;;5054235;28;20048;-62
2023/06/21 08:43:31;;;;;;;2.05;1.80;;;;;;;;;;5054387;28;20428;-61
2023/06/21 08:45:58;;;;;;;1.75;1.65;;;;;;;;;;5054140;28;20090;-62
2023/06/21 08:48:27;;;;;;;2.58;1.90;;;;;;;;;;5053959;28;20053;-62
2023/06/21 08:50:54;;;;;;;2.05;1.92;;;;;;;;;;5054068;28;20053;-62
2023/06/21 08:53:50;;;;;;;1.90;1.70;;;;;;;;;;5054193;28;20048;-61
2023/06/21 08:56:20;;;;;;;1.90;1.80;;;;;;;;;;5053413;28;20075;-62
2023/06/21 08:58:49;;;;;;;2.15;1.63;;;;;;;;;;5054047;28;20440;-62
2023/06/21 09:01:19;;;;;;;2.22;1.60;;;;;;;;;;5053864;28;20053;-61
2023/06/21 09:03:51;;;;;;;2.97;1.38;;;;;;;;;;5053531;28;20389;-62
2023/06/21 09:06:19;;;;;;;1.98;1.52;;;;;;;;;;5053879;28;20412;-62
2023/06/21 09:08:46;;;;;;;3.90;1.73;;;;;;;;;;5053729;28;20063;-62
2023/06/21 09:11:13;;;;;;;2.17;1.35;;;;;;;;;;5053721;28;20053;-62
2023/06/21 09:13:40;;;;;;;3.55;1.70;;;;;;;;;;5053852;28;20140;-62
2023/06/21 09:16:07;;;;;;;;;;;;;;;;;;5054314;28;20049;-62
2023/06/21 09:18:38;;;;;;;2.03;1.70;;;;;;;;;;5053509;28;19927;-62
2023/06/21 09:21:05;;;;;;;2.20;1.70;;;;;;;;;;5053746;28;20496;-62
2023/06/21 09:23:32;;;;;;;2.30;1.38;;;;;;;;;;5053704;28;20067;-62
2023/06/21 09:25:58;;;;;;;1.92;1.70;;;;;;;;;;5053442;28;20048;-62
2023/06/21 09:28:25;;;;;;;2.85;1.70;;;;;;;;;;5053476;28;20060;-62
2023/06/21 09:30:51;;;;;;;1.63;1.52;;;;;;;;;;5053533;28;20063;-61
2023/06/21 09:33:18;;;;;;;2.13;1.58;;;;;;;;;;5053466;28;20468;-62
2023/06/21 09:35:45;;;;;;;3.35;1.70;;;;;;;;;;5053535;28;20056;-62
2023/06/21 09:38:26;;;;;;;3.60;1.42;;;;;;;;;;5053187;28;20085;-62
2023/06/21 09:40:52;;;;;;;1.60;1.50;;;;;;;;;;5053273;28;20081;-62
2023/06/21 09:43:20;;;;;;;2.65;1.52;;;;;;;;;;5053442;28;20106;-62
2023/06/21 09:45:58;;;;;;;1.98;1.70;;;;;;;;;;5053265;28;20048;-62
2023/06/21 09:48:25;;;;;;;2.03;1.70;;;;;;;;;;5053428;28;20079;-62
2023/06/21 09:50:58;;;;;;;1.70;1.60;;;;;;;;;;5053015;28;20061;-62
2023/06/21 09:53:24;;;;;;;3.03;1.60;;;;;;;;;;5053080;28;20055;-62
2023/06/21 09:55:51;;;;;;;3.03;1.73;;;;;;;;;;5053265;28;20049;-62
2023/06/21 09:58:17;;;;;;;4.65;1.77;;;;;;;;;;5053134;28;20044;-62
2023/06/21 10:00:44;;;;;;;1.42;1.33;;;;;;;;;;5053220;28;20052;-62
2023/06/21 10:03:11;;;;;;;2.00;1.75;;;;;;;;;;5052823;28;20068;-62
2023/06/21 10:05:51;;;;;;;2.55;1.50;;;;;;;;;;5053090;28;20059;-62
2023/06/21 10:08:22;;;;;;;2.00;1.80;;;;;;;;;;5053142;28;20091;-62
2023/06/21 10:10:48;;;;;;;1.73;1.40;;;;;;;;;;5052841;28;20053;-62
2023/06/21 10:13:15;;;;;;;1.30;1.20;;;;;;;;;;5052001;28;20531;-62
2023/06/21 10:15:48;;;;;;;1.30;1.20;;;;;;;;;;5052577;28;20049;-62
2023/06/21 10:18:16;;;;;;;1.60;1.10;;;;;;;;;;5052362;28;20063;-62
2023/06/21 10:20:43;;;;;;;1.60;1.50;;;;;;;;;;5052443;28;20049;-62
2023/06/21 10:23:11;;;;;;;2.08;1.50;;;;;;;;;;5052359;28;20049;-62
2023/06/21 10:25:39;;;;;;;2.63;1.50;;;;;;;;;;5052300;28;20048;-62
2023/06/21 10:28:07;;;;;;;1.40;1.30;;;;;;;;;;5052591;28;20063;-62
2023/06/21 10:30:33;;;;;;;1.48;1.30;;;;;;;;;;5052347;28;20110;-62
2023/06/21 10:33:02;;;;;;;1.90;1.50;;;;;;;;;;5052192;28;20045;-62
2023/06/21 10:35:33;;;;;;;1.50;1.40;;;;;;;;;;5052350;28;20056;-62
2023/06/21 10:38:11;;;;;;;2.15;1.60;;;;;;;;;;5052232;28;20068;-62
2023/06/21 10:40:39;;;;;;;3.17;1.70;;;;;;;;;;5052123;28;20461;-62
2023/06/21 10:43:07;;;;;;;1.83;1.50;;;;;;;;;;5052337;28;20048;-62
2023/06/21 10:45:34;;;;;;;2.53;2.00;;;;;;;;;;5052350;28;20091;-62
2023/06/21 10:48:00;;;;;;;;;;;;;;;;;;5052447;28;20049;-62
2023/06/21 10:50:27;;;;;;;2.00;1.80;;;;;;;;;;5052064;28;19927;-62
2023/06/21 10:52:57;;;;;;;2.08;1.60;;;;;;;;;;5051685;28;20049;-62
2023/06/21 10:55:24;;;;;;;2.95;1.80;;;;;;;;;;5051789;28;20060;-62
2023/06/21 10:57:53;;;;;;;3.38;2.22;;;;;;;;;;5052035;28;20076;-62
2023/06/21 11:00:21;;;;;;;2.13;1.92;;;;;;;;;;5052129;28;20053;-62
2023/06/21 11:02:48;;;;;;;4.43;2.08;;;;;;;;;;5052090;28;20091;-60
2023/06/21 11:05:14;;;;;;;;;;;;;;;;;;5052162;28;20067;-60
2023/06/21 11:07:58;;;;;;;2.28;2.08;;;;;;;;;;5051646;28;19920;-60
2023/06/21 11:10:36;;;;;;;2.72;2.10;;;;;;;;;;5052011;28;20136;-60
2023/06/21 11:13:02;;;;;;;3.65;2.40;;;;;;;;;;5051546;28;20072;-60
2023/06/21 11:15:30;;;;;;;2.30;1.83;;;;;;;;;;5051816;28;20045;-59
2023/06/21 11:18:01;;;;;;;3.33;2.50;;;;;;;;;;5051960;28;20495;-60
2023/06/21 11:20:31;;;;;;;2.60;2.40;;;;;;;;;;5051328;28;20505;-59
2023/06/21 11:22:58;;;;;;;4.63;2.50;;;;;;;;;;5051483;28;20052;-60
2023/06/21 11:25:25;;;;;;;2.72;2.53;;;;;;;;;;5050520;28;20044;-59
2023/06/21 11:28:10;;;;;;;3.88;2.83;;;;;;;;;;5051677;28;20107;-59
2023/06/21 11:30:37;;;;;;;2.90;2.60;;;;;;;;;;5051454;28;20049;-60
2023/06/21 11:33:17;;;;;;;3.90;2.53;;;;;;;;;;5051235;28;20047;-60
2023/06/21 11:35:49;;;;;;;3.20;2.25;;;;;;;;;;5051549;28;20497;-60
2023/06/21 11:38:17;;;;;;;4.38;3.10;;;;;;;;;;5051405;28;20053;-60
2023/06/21 11:40:44;;;;;;;3.15;2.85;;;;;;;;;;5051335;28;20048;-60
2023/06/21 11:43:15;;;;;;;6.63;4.07;;;;;;;;;;5036114;28;20435;-60
2023/06/21 11:45:41;;;;;;;6.63;4.78;;;;;;;;;;5051499;28;20053;-60
2023/06/21 11:48:10;;;;;;;6.80;4.95;;;;;;;;;;5051030;28;20053;-60
2023/06/21 11:50:37;;;;;;;4.68;4.28;;;;;;;;;;5051223;28;20053;-59
2023/06/21 11:53:28;;;;;;;5.05;4.63;;;;;;;;;;5051054;28;20072;-60
2023/06/21 11:55:59;;;;;;;3.95;3.65;;;;;;;;;;5050726;28;20049;-59
2023/06/21 11:58:26;;;;;;;3.88;3.58;;;;;;;;;;5051374;28;20045;-59
2023/06/21 12:00:53;;;;;;;3.92;3.53;;;;;;;;;;5051213;28;20053;-60
2023/06/21 12:03:26;;;;;;;3.97;3.53;;;;;;;;;;5051190;28;20052;-59
2023/06/21 12:06:04;;;;;;;3.83;3.38;;;;;;;;;;5051098;28;20053;-60
2023/06/21 12:08:31;;;;;;;4.22;3.78;;;;;;;;;;5051175;28;20051;-60
2023/06/21 12:11:01;;;;;;;3.55;2.90;;;;;;;;;;5051029;28;20052;-60
2023/06/21 12:13:28;;;;;;;3.33;2.90;;;;;;;;;;5050836;28;20049;-60
2023/06/21 12:15:54;;;;;;;;;;;;;;;;;;5051688;28;20041;-60
2023/06/21 12:18:21;;;;;;;2.70;2.50;;;;;;;;;;5050503;28;19968;-60
2023/06/21 12:20:48;;;;;;;3.38;3.08;;;;;;;;;;5050638;28;20049;-60
2023/06/21 12:23:18;;;;;;;4.05;3.40;;;;;;;;;;5051178;28;20057;-59
2023/06/21 12:25:46;;;;;;;3.65;3.35;;;;;;;;;;5051031;28;20044;-60
2023/06/21 12:28:13;;;;;;;4.78;3.53;;;;;;;;;;5051003;28;20049;-60
2023/06/21 12:30:47;;;;;;;3.72;3.42;;;;;;;;;;5050979;28;20408;-60
2023/06/21 12:33:14;;;;;;;5.82;3.47;;;;;;;;;;5050690;28;20053;-60
2023/06/21 12:35:41;;;;;;;4.47;2.95;;;;;;;;;;5050757;28;20045;-60
2023/06/21 12:38:08;;;;;;;3.63;2.75;;;;;;;;;;5054340;28;20488;-60
2023/06/21 12:40:35;;;;;;;2.78;2.50;;;;;;;;;;5054291;28;20049;-60
2023/06/21 12:43:01;;;;;;;3.65;2.65;;;;;;;;;;5053286;28;20415;-60
2023/06/21 12:45:28;;;;;;;3.00;2.50;;;;;;;;;;5054426;28;20053;-61
2023/06/21 12:47:54;;;;;;;3.10;2.80;;;;;;;;;;5053900;28;20547;-61
2023/06/21 12:50:22;;;;;;;2.70;2.40;;;;;;;;;;5054497;28;20052;-61
2023/06/21 12:52:59;;;;;;;3.58;2.70;;;;;;;;;;5054186;28;20064;-60
2023/06/21 12:55:25;;;;;;;3.30;2.30;;;;;;;;;;5054225;28;20083;-60
2023/06/21 12:57:52;;;;;;;4.00;2.78;;;;;;;;;;5054060;28;20056;-60
2023/06/21 13:00:18;;;;;;;2.75;2.55;;;;;;;;;;5053973;28;20068;-61
2023/06/21 13:02:45;;;;;;;3.97;2.60;;;;;;;;;;5052737;28;20056;-60
2023/06/21 13:05:12;;;;;;;4.65;2.60;;;;;;;;;;5053980;28;20045;-60
2023/06/21 13:07:38;;;;;;;3.35;2.25;;;;;;;;;;5053893;28;20060;-60
2023/06/21 13:10:05;;;;;;;2.72;2.20;;;;;;;;;;5053883;28;20124;-60
2023/06/21 13:12:36;;;;;;;2.42;2.22;;;;;;;;;;5053681;28;20049;-60
2023/06/21 13:15:03;;;;;;;2.20;2.00;;;;;;;;;;5053791;28;20044;-60
2023/06/21 13:17:29;;;;;;;3.08;2.38;;;;;;;;;;5053577;28;20094;-60
2023/06/21 13:19:56;;;;;;;2.92;1.90;;;;;;;;;;5052638;28;20100;-60
2023/06/21 13:22:22;;;;;;;3.53;2.45;;;;;;;;;;5053530;28;20053;-60
2023/06/21 13:24:49;;;;;;;3.67;2.78;;;;;;;;;;5053799;28;20045;-60
2023/06/21 13:27:15;;;;;;;4.07;2.22;;;;;;;;;;5053673;28;20040;-60
2023/06/21 13:29:42;;;;;;;2.55;2.35;;;;;;;;;;5053625;28;20056;-60
2023/06/21 13:32:08;;;;;;;5.80;2.63;;;;;;;;;;5053698;28;20048;-60
2023/06/21 13:34:35;;;;;;;2.95;2.65;;;;;;;;;;5053657;28;20044;-60
2023/06/21 13:37:01;;;;;;;2.97;2.25;;;;;;;;;;5053731;28;20049;-60
2023/06/21 13:39:28;;;;;;;2.47;2.05;;;;;;;;;;5053194;28;20599;-60
2023/06/21 13:41:54;;;;;;;4.75;2.00;;;;;;;;;;5053467;28;20098;-60
2023/06/21 13:44:21;;;;;;;2.40;2.17;;;;;;;;;;5053366;28;20057;-61
2023/06/21 13:46:47;;;;;;;2.85;2.10;;;;;;;;;;5053382;28;20523;-61
2023/06/21 13:49:14;;;;;;;3.00;2.28;;;;;;;;;;5052342;28;20065;-60
2023/06/21 13:51:40;;;;;;;3.55;2.60;;;;;;;;;;5053293;28;20127;-60
2023/06/21 13:54:07;;;;;;;3.03;2.50;;;;;;;;;;5052943;28;20045;-60
2023/06/21 13:56:33;;;;;;;;;;;;;;;;;;5053295;28;20489;-60
2023/06/21 13:58:59;;;;;;;3.38;2.70;;;;;;;;;;5052925;28;19987;-60
2023/06/21 14:01:26;;;;;;;3.05;2.60;;;;;;;;;;5052968;28;20059;-60
2023/06/21 14:03:53;;;;;;;3.13;2.70;;;;;;;;;;5052963;28;20501;-60
2023/06/21 14:06:20;;;;;;;3.47;2.63;;;;;;;;;;5052584;28;20044;-60
2023/06/21 14:08:46;;;;;;;2.83;2.63;;;;;;;;;;5052673;28;20041;-60
2023/06/21 14:11:13;;;;;;;3.03;2.70;;;;;;;;;;5052589;28;20053;-60
2023/06/21 14:13:39;;;;;;;2.67;2.47;;;;;;;;;;5052696;28;20099;-60
2023/06/21 14:16:05;;;;;;;;;;;;;;;;;;5052962;28;20049;-60
2023/06/21 14:18:32;;;;;;;2.60;2.40;;;;;;;;;;5052531;28;19921;-60
2023/06/21 14:21:13;;;;;;;2.10;1.90;;;;;;;;;;5052459;28;20457;-60
2023/06/21 14:23:40;;;;;;;3.03;2.03;;;;;;;;;;5052307;28;20338;-60
2023/06/21 14:26:06;;;;;;;1.92;1.50;;;;;;;;;;5052704;28;20067;-60
2023/06/21 14:28:33;;;;;;;1.73;1.55;;;;;;;;;;5052562;28;20416;-60
2023/06/21 14:31:00;;;;;;;1.60;1.42;;;;;;;;;;5052479;28;20055;-61
2023/06/21 14:33:26;;;;;;;2.00;1.80;;;;;;;;;;5052130;28;20477;-60
2023/06/21 14:35:53;;;;;;;3.28;2.00;;;;;;;;;;5052198;28;20051;-60
2023/06/21 14:38:19;;;;;;;1.73;1.60;;;;;;;;;;5052094;28;20049;-60
2023/06/21 14:40:46;;;;;;;1.70;1.60;;;;;;;;;;5052267;28;20049;-60
2023/06/21 14:43:12;;;;;;;1.80;1.70;;;;;;;;;;5052378;28;20045;-61
2023/06/21 14:45:39;;;;;;;1.85;1.73;;;;;;;;;;5052214;28;20057;-60
2023/06/21 14:48:06;;;;;;;1.95;1.80;;;;;;;;;;5051785;28;20049;-60
2023/06/21 14:50:33;;;;;;;2.13;1.92;;;;;;;;;;5051990;28;20107;-60